Time;durP1;ratioP1;P1;durP2;ratioP2;P2;SDS_P1;SDS_P2;PMS_P1;PMS_P2;Temp;Humidity;BMP_temperature;BMP_pressure;BME280_temperature;BME280_humidity;BME280_pressure;Samples;Min_cycle;Max_cycle;Signal;HPM_P1;HPM_P2
2023/05/01 00:02:22;;;;;;;6.53;4.55;;;8.40;99.90;;;;;;4878715;28;93822;-36
2023/05/01 00:04:48;;;;;;;6.95;4.70;;;8.50;99.90;;;;;;4878043;28;94812;-33
2023/05/01 00:07:14;;;;;;;5.32;4.80;;;8.50;99.90;;;;;;4878012;28;94573;-35
2023/05/01 00:09:39;;;;;;;12.48;5.07;;;8.50;99.90;;;;;;4882735;28;93869;-31
2023/05/01 00:12:05;;;;;;;10.20;7.43;;;8.50;99.90;;;;;;4882431;28;92808;-33
2023/05/01 00:14:31;;;;;;;7.15;5.70;;;8.40;99.90;;;;;;4882027;28;95329;-33
2023/05/01 00:16:56;;;;;;;6.25;5.65;;;8.40;99.90;;;;;;4881720;28;94592;-34
2023/05/01 00:19:22;;;;;;;7.43;5.65;;;8.30;99.90;;;;;;4869094;28;94689;-32
2023/05/01 00:21:50;;;;;;;12.90;5.38;;;8.30;99.90;;;;;;4882565;28;93622;-33
2023/05/01 00:24:16;;;;;;;8.80;5.45;;;8.20;99.90;;;;;;4880281;28;95681;-35
2023/05/01 00:26:42;;;;;;;6.80;6.05;;;8.20;99.90;;;;;;4882360;28;94582;-32
2023/05/01 00:29:08;;;;;;;7.97;5.03;;;8.10;99.90;;;;;;4881737;28;92463;-32
2023/05/01 00:31:34;;;;;;;7.07;5.13;;;8.20;99.90;;;;;;4882123;28;92968;-31
2023/05/01 00:34:00;;;;;;;6.45;4.45;;;8.10;99.90;;;;;;4882062;28;94598;-32
2023/05/01 00:36:26;;;;;;;6.57;5.15;;;8.10;99.90;;;;;;4882716;28;94180;-30
2023/05/01 00:38:51;;;;;;;6.45;4.43;;;8.00;99.90;;;;;;4882613;28;92725;-33
2023/05/01 00:41:17;;;;;;;10.75;5.82;;;8.00;99.90;;;;;;4881878;28;94249;-33
2023/05/01 00:43:43;;;;;;;11.25;5.30;;;8.00;99.90;;;;;;4881017;28;95819;-29
2023/05/01 00:46:10;;;;;;;6.00;4.55;;;8.10;99.90;;;;;;4881930;28;95726;-33
2023/05/01 00:48:35;;;;;;;6.25;5.63;;;8.00;99.90;;;;;;4882351;28;94358;-31
2023/05/01 00:51:06;;;;;;;12.43;6.45;;;8.00;99.90;;;;;;4882219;28;93970;-36
2023/05/01 00:53:34;;;;;;;7.47;4.97;;;8.00;99.90;;;;;;4880862;28;94293;-31
2023/05/01 00:56:01;;;;;;;7.90;4.50;;;7.90;99.90;;;;;;4881784;28;94179;-35
2023/05/01 00:58:27;;;;;;;6.13;5.00;;;7.90;99.90;;;;;;4869471;28;92977;-34
2023/05/01 01:00:54;;;;;;;7.50;5.85;;;7.90;99.90;;;;;;4882321;28;92437;-35
2023/05/01 01:03:20;;;;;;;6.97;5.20;;;7.90;99.90;;;;;;4881021;28;94621;-32
2023/05/01 01:05:52;;;;;;;9.82;5.90;;;7.80;99.90;;;;;;4881035;28;94145;-31
2023/05/01 01:08:59;;;;;;;8.32;5.85;;;7.80;99.90;;;;;;4876654;28;93960;-35
2023/05/01 01:12:05;;;;;;;6.28;5.68;;;7.80;99.90;;;;;;4879593;28;94623;-31
2023/05/01 01:14:52;;;;;;;10.90;6.07;;;7.70;99.90;;;;;;4881588;28;95749;-34
2023/05/01 01:17:28;;;;;;;8.85;5.82;;;7.70;99.90;;;;;;4881199;28;94593;-31
2023/05/01 01:20:27;;;;;;;8.48;5.00;;;7.70;99.90;;;;;;4868236;28;92525;-34
2023/05/01 01:23:15;;;;;;;7.70;5.60;;;7.70;99.90;;;;;;4881640;28;93206;-33
2023/05/01 01:26:00;;;;;;;11.38;7.20;;;7.60;99.90;;;;;;4881057;28;94375;-31
2023/05/01 01:28:52;;;;;;;7.03;4.78;;;7.70;99.90;;;;;;4880903;28;94078;-32
2023/05/01 01:31:51;;;;;;;5.15;4.60;;;7.60;99.90;;;;;;4881495;28;94461;-32
2023/05/01 01:34:29;;;;;;;10.40;6.03;;;7.60;99.90;;;;;;4881264;28;92880;-35
2023/05/01 01:37:03;;;;;;;9.63;4.57;;;7.50;99.90;;;;;;4881305;28;95619;-33
2023/05/01 01:40:06;;;;;;;6.68;5.90;;;7.50;99.90;;;;;;4868602;28;95761;-36
2023/05/01 01:42:48;;;;;;;10.98;4.90;;;7.50;99.90;;;;;;4870138;28;92734;-31
2023/05/01 01:45:24;;;;;;;8.63;5.40;;;7.40;99.90;;;;;;4881230;28;94635;-35
2023/05/01 01:47:51;;;;;;;8.70;6.53;;;7.40;99.90;;;;;;4881484;28;94300;-30
2023/05/01 01:50:18;;;;;;;6.72;5.90;;;7.40;99.90;;;;;;4879961;28;94359;-34
2023/05/01 01:52:48;;;;;;;6.13;5.20;;;7.40;99.90;;;;;;4880874;28;93353;-32
2023/05/01 01:55:16;;;;;;;7.10;6.28;;;7.30;99.90;;;;;;4880038;28;91948;-31
2023/05/01 01:57:44;;;;;;;6.80;5.13;;;7.30;99.90;;;;;;4881226;28;94488;-35
2023/05/01 02:00:12;;;;;;;8.95;6.15;;;7.20;99.90;;;;;;4879288;28;94599;-31
2023/05/01 02:02:40;;;;;;;7.25;5.80;;;7.20;99.90;;;;;;4876692;28;93642;-31
2023/05/01 02:05:07;;;;;;;9.02;6.68;;;7.10;99.90;;;;;;4878498;28;93720;-35
2023/05/01 02:07:36;;;;;;;10.02;6.25;;;7.10;99.90;;;;;;4879856;28;95373;-32
2023/05/01 02:10:04;;;;;;;7.78;5.25;;;7.10;99.90;;;;;;4880081;28;94035;-35
2023/05/01 02:12:31;;;;;;;12.85;6.05;;;7.00;99.90;;;;;;4881017;28;94605;-36
2023/05/01 02:14:58;;;;;;;7.93;6.93;;;7.00;99.90;;;;;;4881269;28;95019;-30
2023/05/01 02:17:26;;;;;;;7.95;5.80;;;6.90;99.90;;;;;;4880156;28;94717;-32
2023/05/01 02:19:53;;;;;;;6.40;5.67;;;6.90;99.90;;;;;;4867822;28;95121;-30
2023/05/01 02:22:21;;;;;;;7.03;6.23;;;6.90;99.90;;;;;;4880402;28;94292;-35
2023/05/01 02:24:48;;;;;;;13.47;7.10;;;6.90;99.90;;;;;;4894960;28;92886;-32
2023/05/01 02:27:22;;;;;;;7.72;5.93;;;6.80;99.90;;;;;;4879525;28;97488;-35
2023/05/01 02:29:47;;;;;;;10.00;6.00;;;6.80;99.90;;;;;;4880564;28;95524;-31
2023/05/01 02:32:13;;;;;;;9.65;7.43;;;6.80;99.90;;;;;;4879740;28;94579;-32
2023/05/01 02:34:39;;;;;;;11.02;6.18;;;6.80;99.90;;;;;;4880008;28;94089;-36
2023/05/01 02:37:06;;;;;;;10.15;6.28;;;6.80;99.90;;;;;;4880370;28;93653;-31
2023/05/01 02:39:33;;;;;;;10.52;6.65;;;6.70;99.90;;;;;;4880058;28;94644;-33
2023/05/01 02:42:02;;;;;;;10.25;6.65;;;6.80;99.90;;;;;;4878776;28;94121;-35
2023/05/01 02:44:31;;;;;;;10.27;7.20;;;6.70;99.90;;;;;;4880382;28;92047;-32
2023/05/01 02:46:59;;;;;;;11.50;6.80;;;6.70;99.90;;;;;;4879568;28;94814;-34
2023/05/01 02:49:26;;;;;;;7.63;6.35;;;6.70;99.90;;;;;;4880204;28;94523;-33
2023/05/01 02:51:53;;;;;;;9.80;7.43;;;6.70;99.90;;;;;;4879758;28;95380;-32
2023/05/01 02:54:19;;;;;;;16.10;7.25;;;6.70;99.90;;;;;;4879729;28;94377;-32
2023/05/01 02:56:45;;;;;;;11.02;7.55;;;6.70;99.90;;;;;;4879407;28;94699;-34
2023/05/01 02:59:10;;;;;;;12.32;9.43;;;6.70;99.90;;;;;;4879544;28;94693;-32
2023/05/01 03:01:36;;;;;;;20.73;7.32;;;6.70;99.90;;;;;;4880419;28;92969;-31
2023/05/01 03:04:02;;;;;;;14.80;9.00;;;6.70;99.90;;;;;;4880632;28;93440;-31
2023/05/01 03:06:29;;;;;;;15.30;8.43;;;6.60;99.90;;;;;;4878431;28;94602;-31
2023/05/01 03:08:55;;;;;;;14.13;8.70;;;6.60;99.90;;;;;;4879850;28;94092;-33
2023/05/01 03:11:21;;;;;;;11.02;7.97;;;6.60;99.90;;;;;;4879535;28;93610;-32
2023/05/01 03:13:47;;;;;;;10.23;8.27;;;6.60;99.90;;;;;;4880015;28;93596;-30
2023/05/01 03:16:13;;;;;;;13.35;9.48;;;6.60;99.90;;;;;;4878876;28;96488;-32
2023/05/01 03:18:38;;;;;;;9.07;7.38;;;6.50;99.90;;;;;;4870751;28;95672;-32
2023/05/01 03:21:04;;;;;;;12.73;8.15;;;6.50;99.90;;;;;;4876061;28;92131;-34
2023/05/01 03:23:29;;;;;;;9.30;7.43;;;6.50;99.90;;;;;;4879748;28;94114;-33
2023/05/01 03:25:56;;;;;;;11.98;8.35;;;6.50;99.90;;;;;;4878779;28;94370;-36
2023/05/01 03:28:22;;;;;;;14.02;9.60;;;6.50;99.90;;;;;;4879941;28;95620;-33
2023/05/01 03:30:50;;;;;;;11.57;8.10;;;6.50;99.90;;;;;;4879286;28;94631;-31
2023/05/01 03:33:16;;;;;;;13.35;8.85;;;6.50;99.90;;;;;;4879652;28;93637;-30
2023/05/01 03:35:41;;;;;;;14.60;8.70;;;6.50;99.90;;;;;;4879496;28;95454;-32
2023/05/01 03:38:07;;;;;;;14.02;9.63;;;6.50;99.90;;;;;;4879025;28;94812;-30
2023/05/01 03:40:33;;;;;;;13.68;10.15;;;6.50;99.90;;;;;;4879141;28;95557;-36
2023/05/01 03:42:58;;;;;;;12.05;8.95;;;6.50;99.90;;;;;;4878675;28;94611;-33
2023/05/01 03:45:24;;;;;;;15.93;10.48;;;6.50;99.90;;;;;;4878415;28;94630;-36
2023/05/01 03:47:49;;;;;;;15.80;10.65;;;6.40;99.90;;;;;;4878912;28;94785;-30
2023/05/01 03:50:15;;;;;;;12.60;8.38;;;6.50;99.90;;;;;;4878176;28;93021;-30
2023/05/01 03:52:41;;;;;;;11.98;10.40;;;6.40;99.90;;;;;;4879876;28;93005;-33
2023/05/01 03:55:07;;;;;;;15.68;9.77;;;6.40;99.90;;;;;;4877733;28;94446;-35
2023/05/01 03:57:33;;;;;;;10.68;9.48;;;6.40;99.90;;;;;;4879285;28;94530;-32
2023/05/01 03:59:59;;;;;;;18.98;9.95;;;6.40;99.90;;;;;;4879498;28;93176;-30
2023/05/01 04:02:24;;;;;;;13.45;9.38;;;6.40;99.90;;;;;;4878789;28;94690;-32
2023/05/01 04:04:50;;;;;;;14.55;9.25;;;6.40;99.90;;;;;;4878234;28;95576;-30
2023/05/01 04:07:16;;;;;;;13.68;10.50;;;6.40;99.90;;;;;;4926492;23;95674;-33
2023/05/01 04:09:42;;;;;;;11.45;9.73;;;6.40;99.90;;;;;;4898627;28;93954;-36
2023/05/01 04:12:08;;;;;;;11.70;8.75;;;6.40;99.90;;;;;;4898213;28;93702;-30
2023/05/01 04:14:34;;;;;;;15.52;9.57;;;6.40;99.90;;;;;;4898046;28;95060;-32
2023/05/01 04:17:00;;;;;;;15.82;10.10;;;6.40;99.90;;;;;;4898521;28;94429;-33
2023/05/01 04:19:26;;;;;;;12.70;8.57;;;6.40;99.90;;;;;;4883551;28;92310;-32
2023/05/01 04:21:51;;;;;;;12.75;8.55;;;6.40;99.90;;;;;;4898289;28;93395;-31
2023/05/01 04:24:17;;;;;;;14.65;9.07;;;6.40;99.90;;;;;;4897163;28;95166;-32
2023/05/01 04:26:43;;;;;;;14.70;10.05;;;6.40;99.90;;;;;;4896960;28;94144;-31
2023/05/01 04:29:08;;;;;;;17.83;9.80;;;6.40;99.90;;;;;;4897220;28;93322;-32
2023/05/01 04:31:34;;;;;;;14.63;9.57;;;6.50;99.90;;;;;;4898139;28;92473;-32
2023/05/01 04:34:00;;;;;;;14.75;9.20;;;6.50;99.90;;;;;;4896993;28;94692;-35
2023/05/01 04:36:26;;;;;;;14.27;10.00;;;6.60;99.90;;;;;;4897230;28;94720;-32
2023/05/01 04:38:52;;;;;;;13.80;10.23;;;6.60;99.90;;;;;;4883885;28;93665;-33
2023/05/01 04:41:18;;;;;;;10.55;7.47;;;6.70;99.90;;;;;;4894988;28;92848;-32
2023/05/01 04:43:43;;;;;;;16.13;8.98;;;6.80;99.90;;;;;;4895653;28;94261;-31
2023/05/01 04:46:09;;;;;;;17.77;9.57;;;6.80;99.90;;;;;;4897513;28;94630;-34
2023/05/01 04:48:35;;;;;;;15.23;8.18;;;6.90;99.90;;;;;;4897802;28;93177;-32
2023/05/01 04:51:02;;;;;;;11.40;7.75;;;6.90;99.90;;;;;;4897634;28;94564;-35
2023/05/01 04:53:28;;;;;;;11.77;9.65;;;6.90;99.90;;;;;;4897573;28;95892;-34
2023/05/01 04:55:53;;;;;;;14.63;9.30;;;7.00;99.90;;;;;;4900114;28;95338;-32
2023/05/01 04:58:19;;;;;;;11.32;8.73;;;7.00;99.90;;;;;;4900560;28;94030;-36
2023/05/01 05:00:45;;;;;;;14.75;10.25;;;7.10;99.90;;;;;;4900641;28;93790;-35
2023/05/01 05:03:10;;;;;;;14.18;9.50;;;7.10;99.90;;;;;;4898606;28;94667;-34
2023/05/01 05:05:36;;;;;;;13.73;8.85;;;7.20;99.90;;;;;;4901184;28;94679;-30
2023/05/01 05:08:01;;;;;;;13.35;8.80;;;7.20;99.90;;;;;;4900559;28;92684;-32
2023/05/01 05:10:27;;;;;;;17.45;10.07;;;7.30;99.90;;;;;;4900786;28;91813;-30
2023/05/01 05:12:53;;;;;;;13.23;9.80;;;7.50;99.90;;;;;;4898887;28;95934;-35
2023/05/01 05:15:18;;;;;;;18.83;9.73;;;7.60;99.90;;;;;;4900444;28;94761;-31
2023/05/01 05:17:44;;;;;;;15.27;8.10;;;7.60;99.90;;;;;;4898451;28;94227;-33
2023/05/01 05:20:10;;;;;;;10.20;8.35;;;7.60;99.90;;;;;;4889617;28;92744;-30
2023/05/01 05:22:36;;;;;;;10.80;8.15;;;7.60;99.90;;;;;;4900647;28;95575;-33
2023/05/01 05:25:05;;;;;;;16.48;8.90;;;7.70;99.90;;;;;;4899993;28;94852;-30
2023/05/01 05:27:36;;;;;;;14.45;7.93;;;7.70;99.90;;;;;;4899970;28;94101;-32
2023/05/01 05:30:04;;;;;;;13.07;8.48;;;7.80;99.90;;;;;;4900647;28;94281;-31
2023/05/01 05:32:29;;;;;;;10.38;7.88;;;7.90;99.90;;;;;;4899524;28;95440;-32
2023/05/01 05:34:55;;;;;;;15.57;8.18;;;8.00;99.90;;;;;;4891252;28;94290;-33
2023/05/01 05:37:21;;;;;;;19.13;12.20;;;8.00;99.90;;;;;;4896759;28;93644;-34
2023/05/01 05:39:46;;;;;;;10.20;8.43;;;8.20;99.90;;;;;;4900033;28;92372;-31
2023/05/01 05:42:12;;;;;;;18.60;8.48;;;8.20;99.90;;;;;;4897328;28;96957;-32
2023/05/01 05:44:38;;;;;;;10.45;7.97;;;8.20;99.90;;;;;;4898495;28;95946;-31
2023/05/01 05:47:03;;;;;;;11.70;7.75;;;8.30;99.90;;;;;;4898135;28;93184;-34
2023/05/01 05:49:30;;;;;;;15.93;10.27;;;8.40;99.90;;;;;;4897619;28;92116;-33
2023/05/01 05:51:55;;;;;;;12.93;8.80;;;8.50;99.90;;;;;;4897120;28;94809;-36
2023/05/01 05:54:21;;;;;;;11.35;9.95;;;8.40;99.90;;;;;;4897959;28;94359;-35
2023/05/01 05:56:46;;;;;;;10.38;8.25;;;8.60;99.90;;;;;;4897480;28;94353;-36
2023/05/01 05:59:12;;;;;;;13.15;8.93;;;8.70;99.90;;;;;;4898239;28;92785;-31
2023/05/01 06:01:39;;;;;;;11.13;8.80;;;8.80;99.90;;;;;;4897616;28;94551;-30
2023/05/01 06:04:05;;;;;;;12.32;8.02;;;8.90;99.90;;;;;;4897866;28;94216;-31
2023/05/01 06:06:32;;;;;;;12.45;8.73;;;9.00;99.90;;;;;;4895972;28;94122;-31
2023/05/01 06:08:57;;;;;;;10.60;9.02;;;9.10;99.90;;;;;;4897827;28;93331;-32
2023/05/01 06:11:23;;;;;;;15.65;9.00;;;9.10;99.90;;;;;;4897709;28;95048;-35
2023/05/01 06:13:48;;;;;;;12.90;9.10;;;9.20;99.90;;;;;;4897225;28;95194;-35
2023/05/01 06:16:14;;;;;;;12.75;8.65;;;9.20;99.90;;;;;;4897400;28;94551;-35
2023/05/01 06:18:40;;;;;;;11.23;8.48;;;9.30;99.90;;;;;;4888586;28;94137;-32
2023/05/01 06:21:06;;;;;;;14.05;9.55;;;9.40;99.90;;;;;;4893824;28;94502;-32
2023/05/01 06:23:32;;;;;;;15.60;9.73;;;9.50;99.90;;;;;;4897966;28;94345;-34
2023/05/01 06:25:58;;;;;;;11.70;8.43;;;9.60;99.90;;;;;;4897219;28;94337;-33
2023/05/01 06:28:24;;;;;;;18.15;9.10;;;9.60;99.90;;;;;;4897260;28;93205;-32
2023/05/01 06:30:50;;;;;;;14.02;9.70;;;9.70;99.90;;;;;;4896618;28;96641;-34
2023/05/01 06:33:15;;;;;;;12.40;8.38;;;9.90;99.90;;;;;;4895435;28;95957;-33
2023/05/01 06:35:41;;;;;;;12.88;9.02;;;10.00;99.90;;;;;;4898024;28;93753;-33
2023/05/01 06:38:07;;;;;;;10.82;9.70;;;10.10;99.90;;;;;;4896232;28;92615;-34
2023/05/01 06:40:34;;;;;;;13.77;7.93;;;10.10;99.90;;;;;;4911237;28;94360;-31
2023/05/01 06:43:01;;;;;;;11.55;7.68;;;10.30;99.90;;;;;;4897452;28;94992;-32
2023/05/01 06:45:27;;;;;;;12.55;9.00;;;10.40;99.90;;;;;;4895223;28;92724;-33
2023/05/01 06:47:52;;;;;;;16.00;9.40;;;10.60;99.90;;;;;;4892822;28;93574;-35
2023/05/01 06:50:18;;;;;;;10.18;7.95;;;10.80;99.90;;;;;;4893712;28;94566;-34
2023/05/01 06:52:44;;;;;;;8.50;7.45;;;10.70;99.90;;;;;;4896111;28;94803;-34
2023/05/01 06:55:09;;;;;;;10.68;7.95;;;10.90;99.90;;;;;;4896520;28;95131;-34
2023/05/01 06:57:35;;;;;;;11.00;7.50;;;11.20;99.90;;;;;;4896847;28;92131;-33
2023/05/01 07:00:00;;;;;;;14.02;7.68;;;11.50;99.90;;;;;;4896829;28;94694;-31
2023/05/01 07:02:26;;;;;;;21.65;8.93;;;11.90;99.90;;;;;;4896005;28;94600;-33
2023/05/01 07:04:52;;;;;;;10.25;7.35;;;12.00;99.90;;;;;;4897527;28;93953;-32
2023/05/01 07:07:17;;;;;;;10.30;7.25;;;12.20;99.90;;;;;;4896495;28;92291;-32
2023/05/01 07:09:43;;;;;;;10.48;7.35;;;12.30;99.90;;;;;;4896622;28;94384;-31
2023/05/01 07:12:09;;;;;;;9.95;6.72;;;12.30;99.90;;;;;;4897115;28;94519;-33
2023/05/01 07:14:35;;;;;;;16.40;7.88;;;12.30;99.90;;;;;;4896345;28;93740;-32
2023/05/01 07:17:02;;;;;;;9.73;6.75;;;12.30;99.90;;;;;;4894703;28;92730;-35
2023/05/01 07:19:28;;;;;;;12.43;6.95;;;12.50;99.90;;;;;;4883193;28;96540;-33
2023/05/01 07:21:53;;;;;;;11.02;6.38;;;12.50;99.90;;;;;;4895881;28;95845;-31
2023/05/01 07:24:20;;;;;;;10.20;7.35;;;12.80;99.90;;;;;;4897026;28;94779;-31
2023/05/01 07:26:45;;;;;;;9.52;6.65;;;13.00;99.90;;;;;;4896125;28;94801;-33
2023/05/01 07:29:12;;;;;;;8.45;7.65;;;13.20;99.90;;;;;;4895355;28;94866;-35
2023/05/01 07:31:38;;;;;;;11.82;7.90;;;13.20;99.90;;;;;;4896934;28;94138;-35
2023/05/01 07:34:03;;;;;;;8.95;6.45;;;13.10;99.90;;;;;;4883838;28;93216;-32
2023/05/01 07:36:29;;;;;;;13.60;7.13;;;13.30;99.90;;;;;;4882893;28;94201;-32
2023/05/01 07:38:56;;;;;;;13.32;6.60;;;13.50;99.90;;;;;;4892110;28;94247;-31
2023/05/01 07:41:24;;;;;;;8.20;6.55;;;13.60;99.90;;;;;;4893557;28;95150;-32
2023/05/01 07:43:49;;;;;;;10.10;7.10;;;13.50;99.90;;;;;;4896011;28;95314;-32
2023/05/01 07:46:15;;;;;;;8.65;6.70;;;13.60;99.90;;;;;;4896250;28;92995;-31
2023/05/01 07:48:41;;;;;;;13.15;8.18;;;13.50;99.90;;;;;;4895685;28;94979;-31
2023/05/01 07:51:07;;;;;;;9.57;6.97;;;13.40;99.90;;;;;;4895719;28;95173;-32
2023/05/01 07:53:32;;;;;;;12.55;8.10;;;13.40;99.90;;;;;;4896286;28;93524;-31
2023/05/01 07:56:08;;;;;;;12.10;7.07;;;13.50;99.90;;;;;;4896603;28;93711;-35
2023/05/01 07:58:35;;;;;;;9.18;6.90;;;13.70;99.90;;;;;;4895195;28;94808;-29
2023/05/01 08:01:02;;;;;;;10.95;7.63;;;13.70;99.90;;;;;;4895524;28;94676;-34
2023/05/01 08:03:29;;;;;;;12.27;8.02;;;13.80;99.90;;;;;;4895665;28;94024;-32
2023/05/01 08:05:55;;;;;;;9.15;7.78;;;13.90;99.90;;;;;;4896036;28;94253;-31
2023/05/01 08:08:21;;;;;;;9.07;6.78;;;13.90;99.90;;;;;;4894637;28;96361;-32
2023/05/01 08:10:47;;;;;;;8.07;6.47;;;14.00;99.90;;;;;;4895383;28;95395;-33
2023/05/01 08:13:13;;;;;;;8.98;6.82;;;14.20;99.90;;;;;;4896393;28;93900;-32
2023/05/01 08:15:41;;;;;;;8.23;7.35;;;14.40;99.90;;;;;;4890728;28;92398;-31
2023/05/01 08:18:07;;;;;;;;;;;14.60;99.90;;;;;;4889866;28;95355;-32
2023/05/01 08:20:34;;;;;;;7.03;5.85;;;14.70;99.90;;;;;;4889248;28;94165;-32
2023/05/01 08:22:59;;;;;;;10.20;7.10;;;14.80;99.90;;;;;;4895225;28;92562;-31
2023/05/01 08:25:25;;;;;;;9.02;6.38;;;14.90;99.90;;;;;;4896122;28;93928;-33
2023/05/01 08:27:51;;;;;;;8.10;7.40;;;14.70;94.20;;;;;;4895064;28;94122;-30
2023/05/01 08:30:16;;;;;;;10.23;7.32;;;14.20;91.00;;;;;;4898432;28;93886;-35
2023/05/01 08:32:42;;;;;;;14.68;7.07;;;14.30;99.90;;;;;;4898933;28;93252;-34
2023/05/01 08:35:08;;;;;;;6.80;6.20;;;14.50;99.90;;;;;;4898947;28;94124;-30
2023/05/01 08:37:34;;;;;;;11.50;6.10;;;14.80;99.90;;;;;;4897993;28;94469;-33
2023/05/01 08:39:59;;;;;;;8.70;5.45;;;15.10;99.90;;;;;;4898604;28;94392;-35
2023/05/01 08:42:26;;;;;;;7.10;5.95;;;15.40;99.90;;;;;;4898203;28;93499;-33
2023/05/01 08:44:55;;;;;;;10.85;5.68;;;15.50;83.30;;;;;;4899252;28;95295;-31
2023/05/01 08:47:21;;;;;;;19.98;5.60;;;15.70;84.60;;;;;;4897951;28;95225;-32
2023/05/01 08:49:49;;;;;;;8.68;5.50;;;15.90;82.40;;;;;;4898959;28;94823;-32
2023/05/01 08:52:15;;;;;;;5.50;5.07;;;16.10;80.40;;;;;;4898420;28;93370;-33
2023/05/01 08:54:46;;;;;;;7.65;6.30;;;16.30;79.10;;;;;;4899094;28;94002;-30
2023/05/01 08:57:12;;;;;;;11.90;7.35;;;16.40;78.40;;;;;;4898240;28;95779;-32
2023/05/01 08:59:39;;;;;;;6.25;5.60;;;16.50;75.20;;;;;;4898174;28;95922;-33
2023/05/01 09:02:07;;;;;;;7.15;6.28;;;16.60;76.00;;;;;;4898382;28;92567;-34
2023/05/01 09:04:39;;;;;;;12.90;6.73;;;16.60;77.30;;;;;;4898336;28;93085;-35
2023/05/01 09:07:05;;;;;;;12.65;7.18;;;16.80;77.10;;;;;;4897466;28;94836;-35
2023/05/01 09:09:32;;;;;;;7.30;6.32;;;16.90;77.00;;;;;;4889105;28;95365;-30
2023/05/01 09:12:26;;;;;;;9.30;6.03;;;17.00;76.00;;;;;;4898585;28;94725;-32
2023/05/01 09:14:53;;;;;;;8.77;5.82;;;17.20;73.20;;;;;;4880689;28;92629;-31
2023/05/01 09:17:21;;;;;;;8.73;5.55;;;17.30;74.80;;;;;;4890030;28;94756;-32
2023/05/01 09:19:47;;;;;;;12.02;6.18;;;17.60;74.00;;;;;;4886097;28;94608;-34
2023/05/01 09:22:14;;;;;;;7.55;5.78;;;17.90;74.50;;;;;;4897660;28;95039;-32
2023/05/01 09:24:39;;;;;;;12.02;5.00;;;18.10;74.70;;;;;;4898026;28;94050;-31
2023/05/01 09:27:06;;;;;;;8.57;5.82;;;18.20;72.80;;;;;;4898085;28;95313;-31
2023/05/01 09:29:46;;;;;;;6.55;5.72;;;18.40;72.80;;;;;;4898154;28;93921;-35
2023/05/01 09:32:16;;;;;;;11.40;6.40;;;18.50;70.20;;;;;;4898359;28;94665;-30
2023/05/01 09:34:43;;;;;;;7.07;5.93;;;18.60;70.60;;;;;;4898048;28;94120;-32
2023/05/01 09:37:27;;;;;;;7.68;5.35;;;18.80;69.90;;;;;;4897462;28;94674;-33
2023/05/01 09:40:09;;;;;;;6.25;5.70;;;18.90;68.30;;;;;;4889829;28;94199;-31
2023/05/01 09:42:49;;;;;;;12.77;6.32;;;19.00;69.50;;;;;;4896527;28;94032;-35
2023/05/01 09:45:15;;;;;;;8.95;5.97;;;18.90;67.70;;;;;;4897742;28;94848;-34
2023/05/01 09:47:42;;;;;;;8.13;6.25;;;18.90;69.30;;;;;;4897750;28;95312;-33
2023/05/01 09:50:09;;;;;;;12.23;5.50;;;18.70;69.00;;;;;;4897561;28;94048;-33
2023/05/01 09:52:35;;;;;;;6.65;5.93;;;18.90;69.50;;;;;;4897944;28;93753;-33
2023/05/01 09:55:16;;;;;;;10.07;6.38;;;19.00;69.80;;;;;;4898920;28;94296;-33
2023/05/01 09:57:43;;;;;;;6.47;5.72;;;18.90;66.60;;;;;;4888971;28;94142;-33
2023/05/01 10:00:14;;;;;;;9.50;5.50;;;18.70;67.30;;;;;;4894088;28;94114;-34
2023/05/01 10:02:43;;;;;;;6.05;5.45;;;18.70;65.50;;;;;;4898089;28;93613;-32
2023/05/01 10:05:09;;;;;;;12.02;5.55;;;18.50;65.40;;;;;;4896058;28;93090;-32
2023/05/01 10:07:35;;;;;;;8.60;5.35;;;18.60;67.60;;;;;;4897293;28;94724;-32
2023/05/01 10:10:20;;;;;;;6.82;5.82;;;18.60;65.50;;;;;;4897305;28;94472;-35
2023/05/01 10:12:47;;;;;;;9.00;5.63;;;18.40;64.10;;;;;;4897756;28;93121;-32
2023/05/01 10:15:13;;;;;;;7.93;4.47;;;18.10;63.80;;;;;;4897485;28;93280;-34
2023/05/01 10:17:41;;;;;;;10.75;5.47;;;18.50;64.90;;;;;;4895413;28;94550;-34
2023/05/01 10:20:09;;;;;;;9.53;6.17;;;18.60;65.60;;;;;;4886448;28;94324;-33
2023/05/01 10:22:35;;;;;;;8.45;5.65;;;18.50;63.80;;;;;;4897532;28;93177;-35
2023/05/01 10:25:03;;;;;;;10.30;6.15;;;18.30;65.00;;;;;;4897511;28;94329;-35
2023/05/01 10:27:29;;;;;;;7.68;6.20;;;18.40;65.10;;;;;;4896384;28;94771;-32
2023/05/01 10:29:55;;;;;;;6.60;4.93;;;18.60;66.20;;;;;;4897511;28;94694;-31
2023/05/01 10:32:21;;;;;;;6.05;5.45;;;18.90;69.40;;;;;;4896997;28;92685;-32
2023/05/01 10:34:56;;;;;;;8.90;5.90;;;18.80;64.50;;;;;;4897077;28;93378;-33
2023/05/01 10:37:28;;;;;;;7.28;5.18;;;18.70;64.50;;;;;;4893276;28;97522;-33
2023/05/01 10:39:53;;;;;;;5.90;5.40;;;18.80;61.50;;;;;;4893103;28;95754;-31
2023/05/01 10:42:19;;;;;;;5.65;4.70;;;18.70;61.00;;;;;;4896252;28;94156;-31
2023/05/01 10:44:46;;;;;;;7.75;5.07;;;18.60;62.20;;;;;;4896885;28;94169;-35
2023/05/01 10:47:26;;;;;;;5.43;4.93;;;18.40;61.90;;;;;;4896878;28;94506;-33
2023/05/01 10:50:14;;;;;;;5.70;4.70;;;18.50;63.00;;;;;;4897430;28;94416;-33
2023/05/01 10:53:10;;;;;;;7.65;5.00;;;18.60;63.10;;;;;;4896765;28;93262;-33
2023/05/01 10:55:43;;;;;;;7.40;5.10;;;18.60;63.70;;;;;;4897990;28;93854;-33
2023/05/01 10:58:13;;;;;;;6.72;5.28;;;18.70;66.30;;;;;;4896057;28;94831;-34
2023/05/01 11:00:40;;;;;;;7.32;5.82;;;18.70;64.20;;;;;;4897168;28;94428;-32
2023/05/01 11:03:21;;;;;;;7.90;5.38;;;18.80;66.70;;;;;;4897662;28;94130;-35
2023/05/01 11:05:58;;;;;;;8.20;6.88;;;18.80;63.30;;;;;;4896720;28;92963;-32
2023/05/01 11:08:32;;;;;;;6.97;5.13;;;18.70;62.90;;;;;;4896096;28;94809;-35
2023/05/01 11:11:17;;;;;;;6.88;5.25;;;18.60;63.10;;;;;;4896967;28;94894;-33
2023/05/01 11:14:07;;;;;;;6.65;4.85;;;18.80;67.10;;;;;;4896695;28;94155;-33
2023/05/01 11:16:41;;;;;;;11.05;4.18;;;18.80;63.70;;;;;;4890953;28;93553;-33
2023/05/01 11:19:19;;;;;;;7.70;3.70;;;18.60;64.10;;;;;;4878622;28;94922;-34
2023/05/01 11:21:45;;;;;;;14.63;4.57;;;18.90;68.10;;;;;;4886112;28;94693;-31
2023/05/01 11:24:11;;;;;;;5.15;4.53;;;18.80;65.60;;;;;;4896420;28;94682;-33
2023/05/01 11:26:41;;;;;;;4.82;4.32;;;18.80;62.20;;;;;;4897739;28;92269;-31
2023/05/01 11:29:09;;;;;;;5.13;3.88;;;18.70;62.80;;;;;;4895948;28;94509;-30
2023/05/01 11:31:35;;;;;;;5.22;3.75;;;18.90;64.50;;;;;;4896049;28;94676;-33
2023/05/01 11:34:02;;;;;;;5.25;3.92;;;18.90;62.10;;;;;;4896428;28;92980;-34
2023/05/01 11:36:29;;;;;;;5.68;3.28;;;19.00;64.00;;;;;;4895734;28;95147;-32
2023/05/01 11:38:58;;;;;;;4.13;3.00;;;19.00;64.10;;;;;;4896336;28;95098;-33
2023/05/01 11:41:24;;;;;;;3.85;3.10;;;19.00;64.30;;;;;;4896094;28;94687;-35
2023/05/01 11:43:56;;;;;;;5.93;3.60;;;19.20;64.40;;;;;;4896173;28;92664;-35
2023/05/01 11:46:28;;;;;;;5.53;3.95;;;19.00;62.60;;;;;;4896034;28;91979;-32
2023/05/01 11:48:58;;;;;;;5.38;4.45;;;18.90;63.90;;;;;;4896403;28;94857;-33
2023/05/01 11:51:25;;;;;;;6.78;4.57;;;18.90;64.10;;;;;;4896589;28;93885;-32
2023/05/01 11:54:05;;;;;;;4.70;4.18;;;18.80;63.20;;;;;;4892022;28;94055;-35
2023/05/01 11:56:32;;;;;;;6.65;5.15;;;18.80;65.10;;;;;;4890919;28;93001;-34
2023/05/01 11:59:07;;;;;;;3.55;3.25;;;19.00;68.10;;;;;;4888934;28;94526;-32
2023/05/01 12:01:42;;;;;;;9.93;4.47;;;19.00;66.10;;;;;;4883029;28;95346;-33
2023/05/01 12:04:07;;;;;;;6.68;4.20;;;19.10;66.70;;;;;;4898441;28;94515;-33
2023/05/01 12:06:45;;;;;;;6.60;4.65;;;19.10;64.30;;;;;;4899384;28;92228;-32
2023/05/01 12:09:21;;;;;;;6.00;3.35;;;19.00;65.10;;;;;;4899485;28;95127;-36
2023/05/01 12:11:51;;;;;;;4.22;3.33;;;19.30;63.60;;;;;;4913526;28;94737;-32
2023/05/01 12:14:17;;;;;;;3.45;3.05;;;19.30;64.00;;;;;;4899253;28;93029;-32
2023/05/01 12:16:43;;;;;;;4.32;2.63;;;19.30;64.10;;;;;;4899913;28;93132;-36
2023/05/01 12:19:12;;;;;;;3.45;2.60;;;19.30;62.70;;;;;;4885961;28;95408;-33
2023/05/01 12:21:37;;;;;;;;;;;19.40;64.00;;;;;;4888594;28;95489;-31
2023/05/01 12:24:14;;;;;;;5.90;3.70;;;19.50;63.90;;;;;;4900283;28;92168;-33
2023/05/01 12:26:41;;;;;;;2.43;2.20;;;19.40;63.50;;;;;;4899485;28;93374;-32
2023/05/01 12:29:08;;;;;;;3.78;2.75;;;19.30;63.40;;;;;;4898932;28;94350;-33
2023/05/01 12:31:35;;;;;;;4.55;2.17;;;19.30;64.20;;;;;;4899366;28;93979;-33
2023/05/01 12:34:02;;;;;;;2.75;2.55;;;19.10;65.50;;;;;;4887134;28;92893;-31
2023/05/01 12:36:30;;;;;;;3.17;2.93;;;19.10;63.70;;;;;;4895591;28;93448;-32
2023/05/01 12:39:05;;;;;;;3.67;2.65;;;19.10;61.60;;;;;;4896587;28;94333;-32
2023/05/01 12:41:41;;;;;;;9.02;2.75;;;19.00;61.10;;;;;;4898914;28;95937;-32
2023/05/01 12:44:26;;;;;;;4.38;2.17;;;19.00;63.70;;;;;;4898860;28;94263;-32
2023/05/01 12:46:59;;;;;;;2.58;2.38;;;18.80;63.00;;;;;;4899386;28;92609;-31
2023/05/01 12:49:26;;;;;;;3.38;2.70;;;18.80;64.00;;;;;;4898932;28;95503;-32
2023/05/01 12:51:56;;;;;;;2.97;2.38;;;18.80;63.10;;;;;;4898945;28;95888;-33
2023/05/01 12:54:23;;;;;;;3.42;2.35;;;18.80;61.40;;;;;;4899621;28;94709;-32
2023/05/01 12:56:52;;;;;;;4.35;2.45;;;18.90;63.70;;;;;;4898076;28;94598;-32